sensor_id;sensor_type;location;lat;lon;timestamp;pressure;altitude;pressure_sealevel;temperature;humidity
54900;BME280;40801;41.924;25.562;2024-02-16T00:01:40;100079.59;;;9.46;49.94
54900;BME280;40801;41.924;25.562;2024-02-16T00:04:05;100066.78;;;9.33;50.08
54900;BME280;40801;41.924;25.562;2024-02-16T00:06:32;100077.22;;;9.40;50.34
54900;BME280;40801;41.924;25.562;2024-02-16T00:08:59;100075.59;;;9.44;49.92
54900;BME280;40801;41.924;25.562;2024-02-16T00:11:24;100067.31;;;9.35;49.71
54900;BME280;40801;41.924;25.562;2024-02-16T00:13:50;100067.81;;;9.37;50.20
54900;BME280;40801;41.924;25.562;2024-02-16T00:16:16;100072.41;;;9.37;50.48
54900;BME280;40801;41.924;25.562;2024-02-16T00:18:41;100079.03;;;9.49;49.71
54900;BME280;40801;41.924;25.562;2024-02-16T00:21:06;100072.97;;;9.34;49.94
54900;BME280;40801;41.924;25.562;2024-02-16T00:23:32;100082.94;;;9.33;49.89
54900;BME280;40801;41.924;25.562;2024-02-16T00:25:59;100084.22;;;9.41;49.69
54900;BME280;40801;41.924;25.562;2024-02-16T00:28:24;100082.88;;;9.38;49.92
54900;BME280;40801;41.924;25.562;2024-02-16T00:30:49;100093.94;;;9.37;49.67
54900;BME280;40801;41.924;25.562;2024-02-16T00:33:15;100085.91;;;9.31;49.69
54900;BME280;40801;41.924;25.562;2024-02-16T00:35:42;100087.78;;;9.31;50.09
54900;BME280;40801;41.924;25.562;2024-02-16T00:38:08;100084.06;;;9.27;49.60
54900;BME280;40801;41.924;25.562;2024-02-16T00:40:33;100083.78;;;9.23;49.96
54900;BME280;40801;41.924;25.562;2024-02-16T00:42:59;100076.50;;;9.24;49.94
54900;BME280;40801;41.924;25.562;2024-02-16T00:45:24;100074.84;;;9.33;49.95
54900;BME280;40801;41.924;25.562;2024-02-16T00:47:50;100077.78;;;9.37;49.96
54900;BME280;40801;41.924;25.562;2024-02-16T00:50:15;100060.63;;;9.22;49.68
54900;BME280;40801;41.924;25.562;2024-02-16T00:52:40;100071.69;;;9.26;49.80
54900;BME280;40801;41.924;25.562;2024-02-16T00:55:06;100070.41;;;9.13;49.68
54900;BME280;40801;41.924;25.562;2024-02-16T00:57:32;100074.72;;;9.09;50.39
54900;BME280;40801;41.924;25.562;2024-02-16T00:59:59;100061.34;;;8.99;50.45
54900;BME280;40801;41.924;25.562;2024-02-16T01:02:24;100070.94;;;9.10;50.72
54900;BME280;40801;41.924;25.562;2024-02-16T01:04:51;100073.94;;;9.04;50.41
54900;BME280;40801;41.924;25.562;2024-02-16T01:07:17;100070.94;;;9.10;50.07
54900;BME280;40801;41.924;25.562;2024-02-16T01:09:42;100067.22;;;9.06;50.43
54900;BME280;40801;41.924;25.562;2024-02-16T01:12:08;100068.00;;;9.07;50.16
54900;BME280;40801;41.924;25.562;2024-02-16T01:14:33;100068.50;;;9.14;50.30
54900;BME280;40801;41.924;25.562;2024-02-16T01:16:59;100061.75;;;9.16;50.14
54900;BME280;40801;41.924;25.562;2024-02-16T01:19:25;100062.06;;;9.10;50.58
54900;BME280;40801;41.924;25.562;2024-02-16T01:21:50;100064.50;;;9.11;50.20
54900;BME280;40801;41.924;25.562;2024-02-16T01:24:18;100060.16;;;9.15;50.31
54900;BME280;40801;41.924;25.562;2024-02-16T01:26:45;100057.81;;;9.04;50.63
54900;BME280;40801;41.924;25.562;2024-02-16T01:29:10;100049.75;;;9.04;50.97
54900;BME280;40801;41.924;25.562;2024-02-16T01:31:36;100046.34;;;8.83;50.88
54900;BME280;40801;41.924;25.562;2024-02-16T01:34:02;100049.03;;;8.83;50.98
54900;BME280;40801;41.924;25.562;2024-02-16T01:36:27;100048.19;;;8.87;51.02
54900;BME280;40801;41.924;25.562;2024-02-16T01:38:53;100049.53;;;8.90;50.52
54900;BME280;40801;41.924;25.562;2024-02-16T01:41:18;100047.91;;;8.89;50.72
54900;BME280;40801;41.924;25.562;2024-02-16T01:43:43;100049.31;;;8.81;50.83
54900;BME280;40801;41.924;25.562;2024-02-16T01:46:09;100050.44;;;8.70;51.46
54900;BME280;40801;41.924;25.562;2024-02-16T01:48:34;100043.09;;;8.86;51.02
54900;BME280;40801;41.924;25.562;2024-02-16T01:51:00;100047.94;;;8.84;51.06
54900;BME280;40801;41.924;25.562;2024-02-16T01:53:27;100047.19;;;8.78;50.99
54900;BME280;40801;41.924;25.562;2024-02-16T01:55:53;100049.84;;;8.83;50.99
54900;BME280;40801;41.924;25.562;2024-02-16T01:58:19;100048.84;;;8.69;51.44
54900;BME280;40801;41.924;25.562;2024-02-16T02:00:45;100044.81;;;8.61;51.12
54900;BME280;40801;41.924;25.562;2024-02-16T02:03:11;100049.66;;;8.59;51.59
54900;BME280;40801;41.924;25.562;2024-02-16T02:05:44;100042.97;;;8.57;50.95
54900;BME280;40801;41.924;25.562;2024-02-16T02:08:13;100045.09;;;8.60;51.18
54900;BME280;40801;41.924;25.562;2024-02-16T02:10:39;100042.44;;;8.55;51.44
54900;BME280;40801;41.924;25.562;2024-02-16T02:13:05;100043.75;;;8.62;50.86
54900;BME280;40801;41.924;25.562;2024-02-16T02:15:30;100041.13;;;8.47;51.44
54900;BME280;40801;41.924;25.562;2024-02-16T02:17:56;100042.47;;;8.45;51.59
54900;BME280;40801;41.924;25.562;2024-02-16T02:20:24;100043.81;;;8.37;51.92
54900;BME280;40801;41.924;25.562;2024-02-16T02:22:49;100042.22;;;8.41;52.02
54900;BME280;40801;41.924;25.562;2024-02-16T02:25:15;100041.69;;;8.34;51.89
54900;BME280;40801;41.924;25.562;2024-02-16T02:27:40;100033.06;;;8.37;51.60
54900;BME280;40801;41.924;25.562;2024-02-16T02:30:06;100043.03;;;8.36;51.79
54900;BME280;40801;41.924;25.562;2024-02-16T02:32:32;100050.00;;;8.32;52.24
54900;BME280;40801;41.924;25.562;2024-02-16T02:34:57;100049.75;;;8.29;52.34
54900;BME280;40801;41.924;25.562;2024-02-16T02:37:23;100042.25;;;8.05;52.29
54900;BME280;40801;41.924;25.562;2024-02-16T02:39:48;100051.69;;;8.13;52.96
54900;BME280;40801;41.924;25.562;2024-02-16T02:42:14;100050.06;;;8.17;52.17
54900;BME280;40801;41.924;25.562;2024-02-16T02:44:39;100052.72;;;8.22;52.22
54900;BME280;40801;41.924;25.562;2024-02-16T02:47:05;100053.81;;;8.06;52.91
54900;BME280;40801;41.924;25.562;2024-02-16T02:49:31;100057.84;;;8.14;53.05
54900;BME280;40801;41.924;25.562;2024-02-16T02:51:58;100061.34;;;8.04;52.90
54900;BME280;40801;41.924;25.562;2024-02-16T02:54:23;100064.03;;;7.99;53.10
54900;BME280;40801;41.924;25.562;2024-02-16T02:56:49;100054.63;;;8.06;52.86
54900;BME280;40801;41.924;25.562;2024-02-16T02:59:14;100058.41;;;7.90;53.82
54900;BME280;40801;41.924;25.562;2024-02-16T03:01:40;100065.09;;;8.03;53.23
54900;BME280;40801;41.924;25.562;2024-02-16T03:04:05;100072.09;;;8.14;52.69
54900;BME280;40801;41.924;25.562;2024-02-16T03:06:31;100072.91;;;8.10;52.82
54900;BME280;40801;41.924;25.562;2024-02-16T03:08:56;100077.69;;;8.28;52.77
54900;BME280;40801;41.924;25.562;2024-02-16T03:11:21;100068.56;;;8.24;52.79
54900;BME280;40801;41.924;25.562;2024-02-16T03:13:47;100063.72;;;8.31;52.59
54900;BME280;40801;41.924;25.562;2024-02-16T03:16:13;100065.31;;;8.32;51.64
54900;BME280;40801;41.924;25.562;2024-02-16T03:18:39;100076.63;;;8.08;53.06
54900;BME280;40801;41.924;25.562;2024-02-16T03:21:04;100068.56;;;8.24;52.21
54900;BME280;40801;41.924;25.562;2024-02-16T03:23:30;100075.53;;;8.30;51.99
54900;BME280;40801;41.924;25.562;2024-02-16T03:25:56;100070.44;;;8.28;52.29
54900;BME280;40801;41.924;25.562;2024-02-16T03:28:21;100072.88;;;8.20;52.66
54900;BME280;40801;41.924;25.562;2024-02-16T03:30:46;100068.28;;;8.35;52.07
54900;BME280;40801;41.924;25.562;2024-02-16T03:33:12;100070.97;;;8.30;52.35
54900;BME280;40801;41.924;25.562;2024-02-16T03:35:38;100077.97;;;8.42;52.39
54900;BME280;40801;41.924;25.562;2024-02-16T03:38:04;100077.69;;;8.48;51.81
54900;BME280;40801;41.924;25.562;2024-02-16T03:40:30;100073.09;;;8.49;51.65
54900;BME280;40801;41.924;25.562;2024-02-16T03:42:55;100079.78;;;8.56;51.42
54900;BME280;40801;41.924;25.562;2024-02-16T03:45:22;100082.50;;;8.51;51.36
54900;BME280;40801;41.924;25.562;2024-02-16T03:47:48;100082.50;;;8.51;51.51
54900;BME280;40801;41.924;25.562;2024-02-16T03:50:20;100084.97;;;8.43;51.22
54900;BME280;40801;41.924;25.562;2024-02-16T03:52:45;100085.19;;;8.51;51.47
54900;BME280;40801;41.924;25.562;2024-02-16T03:55:11;100083.28;;;8.57;51.00
54900;BME280;40801;41.924;25.562;2024-02-16T03:57:37;100092.69;;;8.59;50.91
54900;BME280;40801;41.924;25.562;2024-02-16T04:00:03;100087.34;;;8.54;51.24
54900;BME280;40801;41.924;25.562;2024-02-16T04:02:31;100091.59;;;8.60;51.10
54900;BME280;40801;41.924;25.562;2024-02-16T04:04:57;100088.63;;;8.62;50.57
54900;BME280;40801;41.924;25.562;2024-02-16T04:07:22;100087.03;;;8.61;51.17
54900;BME280;40801;41.924;25.562;2024-02-16T04:09:47;100087.59;;;8.53;51.25
54900;BME280;40801;41.924;25.562;2024-02-16T04:12:13;100096.22;;;8.50;50.93
54900;BME280;40801;41.924;25.562;2024-02-16T04:14:38;100088.16;;;8.50;51.04
54900;BME280;40801;41.924;25.562;2024-02-16T04:17:04;100085.75;;;8.48;51.41
54900;BME280;40801;41.924;25.562;2024-02-16T04:19:29;100090.81;;;8.55;51.45
54900;BME280;40801;41.924;25.562;2024-02-16T04:21:55;100084.91;;;8.58;51.03
54900;BME280;40801;41.924;25.562;2024-02-16T04:24:21;100089.72;;;8.71;50.35
54900;BME280;40801;41.924;25.562;2024-02-16T04:26:46;100091.06;;;8.68;50.54
54900;BME280;40801;41.924;25.562;2024-02-16T04:29:12;100088.38;;;8.63;50.79
54900;BME280;40801;41.924;25.562;2024-02-16T04:31:41;100087.84;;;8.61;50.87
54900;BME280;40801;41.924;25.562;2024-02-16T04:34:12;100087.00;;;8.66;50.57
54900;BME280;40801;41.924;25.562;2024-02-16T04:36:37;100092.19;;;8.47;50.90
54900;BME280;40801;41.924;25.562;2024-02-16T04:39:03;100096.78;;;8.47;51.11
54900;BME280;40801;41.924;25.562;2024-02-16T04:41:28;100096.78;;;8.36;50.98
54900;BME280;40801;41.924;25.562;2024-02-16T04:43:54;100095.44;;;8.39;50.93
54900;BME280;40801;41.924;25.562;2024-02-16T04:46:19;100099.19;;;8.38;51.50
54900;BME280;40801;41.924;25.562;2024-02-16T04:48:45;100098.13;;;8.34;51.58
54900;BME280;40801;41.924;25.562;2024-02-16T04:51:11;100112.38;;;8.45;51.03
54900;BME280;40801;41.924;25.562;2024-02-16T04:53:36;100101.34;;;8.36;50.91
54900;BME280;40801;41.924;25.562;2024-02-16T04:56:02;100105.63;;;8.32;50.76
54900;BME280;40801;41.924;25.562;2024-02-16T04:58:28;100107.00;;;8.34;50.92
54900;BME280;40801;41.924;25.562;2024-02-16T05:00:53;100109.41;;;8.46;50.90
54900;BME280;40801;41.924;25.562;2024-02-16T05:03:18;100109.66;;;8.50;50.69
54900;BME280;40801;41.924;25.562;2024-02-16T05:05:44;100107.53;;;8.47;50.48
54900;BME280;40801;41.924;25.562;2024-02-16T05:08:10;100113.47;;;8.38;51.03
54900;BME280;40801;41.924;25.562;2024-02-16T05:10:36;100114.50;;;8.48;51.10
54900;BME280;40801;41.924;25.562;2024-02-16T05:13:01;100123.94;;;8.40;50.66
54900;BME280;40801;41.924;25.562;2024-02-16T05:15:26;100119.91;;;8.43;51.08
54900;BME280;40801;41.924;25.562;2024-02-16T05:17:52;100116.94;;;8.39;51.06
54900;BME280;40801;41.924;25.562;2024-02-16T05:20:18;100126.59;;;8.25;51.10
54900;BME280;40801;41.924;25.562;2024-02-16T05:22:45;100119.63;;;8.34;50.96
54900;BME280;40801;41.924;25.562;2024-02-16T05:25:17;100120.13;;;8.31;50.71
54900;BME280;40801;41.924;25.562;2024-02-16T05:27:43;100134.38;;;8.26;51.16
54900;BME280;40801;41.924;25.562;2024-02-16T05:30:10;100129.28;;;8.30;51.23
54900;BME280;40801;41.924;25.562;2024-02-16T05:32:38;100128.22;;;8.21;50.92
54900;BME280;40801;41.924;25.562;2024-02-16T05:35:04;100139.00;;;8.11;50.57
54900;BME280;40801;41.924;25.562;2024-02-16T05:37:37;100130.91;;;8.16;51.09
54900;BME280;40801;41.924;25.562;2024-02-16T05:40:03;100141.63;;;8.31;50.45
54900;BME280;40801;41.924;25.562;2024-02-16T05:42:46;100132.53;;;8.17;50.95
54900;BME280;40801;41.924;25.562;2024-02-16T05:45:11;100148.63;;;8.37;50.72
54900;BME280;40801;41.924;25.562;2024-02-16T05:47:37;100146.72;;;8.32;50.55
54900;BME280;40801;41.924;25.562;2024-02-16T05:50:04;100140.06;;;8.15;50.88
54900;BME280;40801;41.924;25.562;2024-02-16T05:52:30;100152.94;;;8.18;50.79
54900;BME280;40801;41.924;25.562;2024-02-16T05:54:55;100152.91;;;8.33;50.36
54900;BME280;40801;41.924;25.562;2024-02-16T05:57:21;100159.13;;;8.23;50.88
54900;BME280;40801;41.924;25.562;2024-02-16T05:59:46;100162.31;;;8.30;50.95
54900;BME280;40801;41.924;25.562;2024-02-16T06:02:11;100161.81;;;8.44;50.60
54900;BME280;40801;41.924;25.562;2024-02-16T06:04:38;100155.91;;;8.36;50.09
54900;BME280;40801;41.924;25.562;2024-02-16T06:07:04;100164.75;;;8.52;50.16
54900;BME280;40801;41.924;25.562;2024-02-16T06:09:31;100157.25;;;8.44;50.14
54900;BME280;40801;41.924;25.562;2024-02-16T06:12:01;100164.22;;;8.55;49.82
54900;BME280;40801;41.924;25.562;2024-02-16T06:14:28;100169.59;;;8.55;49.51
54900;BME280;40801;41.924;25.562;2024-02-16T06:16:54;100165.78;;;8.66;49.47
54900;BME280;40801;41.924;25.562;2024-02-16T06:19:19;100162.34;;;8.46;49.41
54900;BME280;40801;41.924;25.562;2024-02-16T06:21:44;100160.44;;;8.56;49.85
54900;BME280;40801;41.924;25.562;2024-02-16T06:24:10;100156.63;;;8.78;49.52
54900;BME280;40801;41.924;25.562;2024-02-16T06:26:35;100151.50;;;8.86;49.07
54900;BME280;40801;41.924;25.562;2024-02-16T06:29:01;100163.06;;;8.82;49.62
54900;BME280;40801;41.924;25.562;2024-02-16T06:31:26;100164.06;;;9.06;49.13
54900;BME280;40801;41.924;25.562;2024-02-16T06:33:51;100172.59;;;9.23;48.71
54900;BME280;40801;41.924;25.562;2024-02-16T06:36:17;100174.34;;;9.48;48.05
54900;BME280;40801;41.924;25.562;2024-02-16T06:38:42;100173.41;;;9.29;48.71
54900;BME280;40801;41.924;25.562;2024-02-16T06:41:08;100175.72;;;9.46;47.80
54900;BME280;40801;41.924;25.562;2024-02-16T06:43:33;100164.88;;;9.61;47.69
54900;BME280;40801;41.924;25.562;2024-02-16T06:45:59;100166.13;;;9.74;47.68
54900;BME280;40801;41.924;25.562;2024-02-16T06:48:24;100172.63;;;10.07;47.04
54900;BME280;40801;41.924;25.562;2024-02-16T06:50:50;100168.78;;;9.79;46.53
54900;BME280;40801;41.924;25.562;2024-02-16T06:53:15;100170.78;;;10.02;46.83
54900;BME280;40801;41.924;25.562;2024-02-16T06:55:40;100168.50;;;9.80;46.43
54900;BME280;40801;41.924;25.562;2024-02-16T06:58:06;100177.16;;;10.11;46.21
54900;BME280;40801;41.924;25.562;2024-02-16T07:00:31;100180.34;;;10.18;46.10
54900;BME280;40801;41.924;25.562;2024-02-16T07:02:57;100179.38;;;10.38;45.48
54900;BME280;40801;41.924;25.562;2024-02-16T07:05:22;100176.56;;;10.53;45.45
54900;BME280;40801;41.924;25.562;2024-02-16T07:07:47;100180.56;;;10.56;44.92
54900;BME280;40801;41.924;25.562;2024-02-16T07:10:14;100184.44;;;10.74;44.86
54900;BME280;40801;41.924;25.562;2024-02-16T07:12:40;100182.97;;;10.86;44.59
54900;BME280;40801;41.924;25.562;2024-02-16T07:15:06;100183.72;;;10.63;44.99
54900;BME280;40801;41.924;25.562;2024-02-16T07:17:31;100187.47;;;10.67;44.60
54900;BME280;40801;41.924;25.562;2024-02-16T07:19:57;100194.44;;;10.44;45.00
54900;BME280;40801;41.924;25.562;2024-02-16T07:22:22;100189.34;;;10.43;45.34
54900;BME280;40801;41.924;25.562;2024-02-16T07:24:47;100187.75;;;10.66;45.00
54900;BME280;40801;41.924;25.562;2024-02-16T07:27:13;100193.00;;;10.81;44.86
54900;BME280;40801;41.924;25.562;2024-02-16T07:29:38;100193.06;;;10.76;44.86
54900;BME280;40801;41.924;25.562;2024-02-16T07:32:04;100202.94;;;10.85;44.64
54900;BME280;40801;41.924;25.562;2024-02-16T07:34:30;100194.78;;;10.91;44.53
54900;BME280;40801;41.924;25.562;2024-02-16T07:36:55;100193.28;;;10.79;44.77
54900;BME280;40801;41.924;25.562;2024-02-16T07:39:21;100204.78;;;10.90;44.53
54900;BME280;40801;41.924;25.562;2024-02-16T07:41:48;100207.13;;;10.97;44.05
54900;BME280;40801;41.924;25.562;2024-02-16T07:44:14;100206.00;;;11.03;44.60
54900;BME280;40801;41.924;25.562;2024-02-16T07:46:40;100203.47;;;11.11;44.34
54900;BME280;40801;41.924;25.562;2024-02-16T07:49:05;100209.19;;;10.81;44.69
54900;BME280;40801;41.924;25.562;2024-02-16T07:51:31;100204.78;;;11.14;44.41
54900;BME280;40801;41.924;25.562;2024-02-16T07:53:56;100205.88;;;11.13;44.22
54900;BME280;40801;41.924;25.562;2024-02-16T07:56:22;100220.63;;;10.97;44.46
54900;BME280;40801;41.924;25.562;2024-02-16T07:58:47;100221.19;;;10.94;44.44
54900;BME280;40801;41.924;25.562;2024-02-16T08:01:13;100218.72;;;10.97;44.55
54900;BME280;40801;41.924;25.562;2024-02-16T08:03:41;100213.50;;;11.30;44.48
54900;BME280;40801;41.924;25.562;2024-02-16T08:06:06;100210.03;;;11.24;44.09
54900;BME280;40801;41.924;25.562;2024-02-16T08:08:32;100210.44;;;11.36;43.96
54900;BME280;40801;41.924;25.562;2024-02-16T08:10:57;100211.41;;;11.45;43.91
54900;BME280;40801;41.924;25.562;2024-02-16T08:13:23;100216.97;;;11.54;43.75
54900;BME280;40801;41.924;25.562;2024-02-16T08:15:48;100212.50;;;11.44;44.28
54900;BME280;40801;41.924;25.562;2024-02-16T08:18:14;100215.72;;;11.46;44.22
54900;BME280;40801;41.924;25.562;2024-02-16T08:20:39;100216.44;;;11.33;44.24
54900;BME280;40801;41.924;25.562;2024-02-16T08:23:04;100208.00;;;11.77;43.80
54900;BME280;40801;41.924;25.562;2024-02-16T08:25:30;100211.97;;;12.04;43.66
54900;BME280;40801;41.924;25.562;2024-02-16T08:27:56;100208.47;;;12.36;43.20
54900;BME280;40801;41.924;25.562;2024-02-16T08:30:21;100209.09;;;12.79;43.16
54900;BME280;40801;41.924;25.562;2024-02-16T08:32:47;100209.94;;;13.35;42.30
54900;BME280;40801;41.924;25.562;2024-02-16T08:35:13;100211.44;;;13.77;41.90
54900;BME280;40801;41.924;25.562;2024-02-16T08:37:39;100199.66;;;14.40;40.51
54900;BME280;40801;41.924;25.562;2024-02-16T08:40:05;100201.75;;;14.65;39.30
54900;BME280;40801;41.924;25.562;2024-02-16T08:42:31;100211.94;;;14.60;39.14
54900;BME280;40801;41.924;25.562;2024-02-16T08:44:56;100215.69;;;15.12;38.90
54900;BME280;40801;41.924;25.562;2024-02-16T08:47:25;100215.94;;;15.41;38.41
54900;BME280;40801;41.924;25.562;2024-02-16T08:49:50;100204.63;;;16.43;37.36
54900;BME280;40801;41.924;25.562;2024-02-16T08:52:16;100211.44;;;16.84;36.68
54900;BME280;40801;41.924;25.562;2024-02-16T08:54:45;100203.22;;;17.30;35.13
54900;BME280;40801;41.924;25.562;2024-02-16T08:57:10;100207.84;;;17.59;34.41
54900;BME280;40801;41.924;25.562;2024-02-16T08:59:35;100206.22;;;17.88;34.43
54900;BME280;40801;41.924;25.562;2024-02-16T09:02:01;100210.63;;;18.01;34.15
54900;BME280;40801;41.924;25.562;2024-02-16T09:04:27;100209.75;;;18.42;33.71
54900;BME280;40801;41.924;25.562;2024-02-16T09:06:52;100217.03;;;18.38;31.87
54900;BME280;40801;41.924;25.562;2024-02-16T09:09:18;100214.25;;;18.59;31.90
54900;BME280;40801;41.924;25.562;2024-02-16T09:11:44;100210.78;;;18.38;32.49
54900;BME280;40801;41.924;25.562;2024-02-16T09:14:09;100213.53;;;18.95;31.75
54900;BME280;40801;41.924;25.562;2024-02-16T09:16:35;100215.69;;;19.75;31.48
54900;BME280;40801;41.924;25.562;2024-02-16T09:19:00;100219.47;;;19.70;31.31
54900;BME280;40801;41.924;25.562;2024-02-16T09:21:26;100211.41;;;20.30;30.32
54900;BME280;40801;41.924;25.562;2024-02-16T09:23:53;100204.25;;;20.69;30.05
54900;BME280;40801;41.924;25.562;2024-02-16T09:26:19;100201.25;;;21.06;29.61
54900;BME280;40801;41.924;25.562;2024-02-16T09:28:44;100200.91;;;20.91;29.40
54900;BME280;40801;41.924;25.562;2024-02-16T09:31:14;100199.22;;;21.34;28.51
54900;BME280;40801;41.924;25.562;2024-02-16T09:33:39;100199.84;;;21.27;28.80
54900;BME280;40801;41.924;25.562;2024-02-16T09:36:06;100205.56;;;19.75;28.93
54900;BME280;40801;41.924;25.562;2024-02-16T09:38:31;100194.63;;;20.31;28.96
54900;BME280;40801;41.924;25.562;2024-02-16T09:40:57;100194.75;;;20.51;28.90
54900;BME280;40801;41.924;25.562;2024-02-16T09:43:27;100191.03;;;20.15;28.69
54900;BME280;40801;41.924;25.562;2024-02-16T09:46:01;100197.59;;;19.58;28.56
54900;BME280;40801;41.924;25.562;2024-02-16T09:48:27;100188.09;;;20.08;28.71
54900;BME280;40801;41.924;25.562;2024-02-16T09:50:54;100186.00;;;20.17;28.60
54900;BME280;40801;41.924;25.562;2024-02-16T09:53:20;100182.16;;;20.34;28.53
54900;BME280;40801;41.924;25.562;2024-02-16T09:55:49;100184.25;;;20.53;27.92
54900;BME280;40801;41.924;25.562;2024-02-16T09:58:15;100179.59;;;20.69;28.49
54900;BME280;40801;41.924;25.562;2024-02-16T10:00:53;100185.00;;;21.13;27.07
54900;BME280;40801;41.924;25.562;2024-02-16T10:03:30;100180.53;;;21.75;26.18
54900;BME280;40801;41.924;25.562;2024-02-16T10:06:08;100173.00;;;21.72;26.04
54900;BME280;40801;41.924;25.562;2024-02-16T10:08:46;100182.38;;;22.06;27.13
54900;BME280;40801;41.924;25.562;2024-02-16T10:11:11;100184.16;;;21.44;27.60
54900;BME280;40801;41.924;25.562;2024-02-16T10:13:37;100172.97;;;21.52;27.23
54900;BME280;40801;41.924;25.562;2024-02-16T10:16:10;100166.13;;;21.43;26.57
54900;BME280;40801;41.924;25.562;2024-02-16T10:18:37;100163.09;;;21.67;27.14
54900;BME280;40801;41.924;25.562;2024-02-16T10:21:02;100162.38;;;21.35;26.94
54900;BME280;40801;41.924;25.562;2024-02-16T10:23:28;100163.00;;;21.63;26.89
54900;BME280;40801;41.924;25.562;2024-02-16T10:25:54;100160.72;;;21.85;27.15
54900;BME280;40801;41.924;25.562;2024-02-16T10:28:20;100144.75;;;22.75;26.30
54900;BME280;40801;41.924;25.562;2024-02-16T10:30:59;100146.47;;;22.83;26.04
54900;BME280;40801;41.924;25.562;2024-02-16T10:33:28;100136.34;;;22.64;26.41
54900;BME280;40801;41.924;25.562;2024-02-16T10:35:57;100142.63;;;22.88;26.40
54900;BME280;40801;41.924;25.562;2024-02-16T10:38:24;100143.13;;;22.93;26.28
54900;BME280;40801;41.924;25.562;2024-02-16T10:40:51;100133.56;;;24.33;24.36
54900;BME280;40801;41.924;25.562;2024-02-16T10:43:17;100141.63;;;23.26;24.64
54900;BME280;40801;41.924;25.562;2024-02-16T10:45:43;100137.50;;;23.12;25.06
54900;BME280;40801;41.924;25.562;2024-02-16T10:48:10;100133.94;;;23.12;25.90
54900;BME280;40801;41.924;25.562;2024-02-16T10:50:37;100128.13;;;23.43;25.69
54900;BME280;40801;41.924;25.562;2024-02-16T10:53:24;100130.22;;;22.97;24.54
54900;BME280;40801;41.924;25.562;2024-02-16T10:55:50;100128.13;;;23.43;25.34
54900;BME280;40801;41.924;25.562;2024-02-16T10:58:17;100132.97;;;23.24;24.97
54900;BME280;40801;41.924;25.562;2024-02-16T11:00:55;100124.69;;;23.80;24.31
54900;BME280;40801;41.924;25.562;2024-02-16T11:03:22;100125.84;;;24.53;24.41
54900;BME280;40801;41.924;25.562;2024-02-16T11:05:49;100118.13;;;24.69;24.68
54900;BME280;40801;41.924;25.562;2024-02-16T11:08:19;100116.56;;;25.27;23.77
54900;BME280;40801;41.924;25.562;2024-02-16T11:10:57;100107.66;;;24.93;22.78
54900;BME280;40801;41.924;25.562;2024-02-16T11:13:27;100104.41;;;24.84;23.73
54900;BME280;40801;41.924;25.562;2024-02-16T11:16:03;100106.63;;;24.60;23.96
54900;BME280;40801;41.924;25.562;2024-02-16T11:18:38;100103.63;;;24.32;23.76
54900;BME280;40801;41.924;25.562;2024-02-16T11:21:04;100097.28;;;25.38;23.51
54900;BME280;40801;41.924;25.562;2024-02-16T11:23:32;100092.00;;;25.08;23.78
54900;BME280;40801;41.924;25.562;2024-02-16T11:26:08;100092.78;;;25.91;22.83
54900;BME280;40801;41.924;25.562;2024-02-16T11:28:37;100092.06;;;26.19;23.05
54900;BME280;40801;41.924;25.562;2024-02-16T11:31:04;100092.06;;;26.30;22.75
54900;BME280;40801;41.924;25.562;2024-02-16T11:33:30;100085.78;;;26.94;22.17
54900;BME280;40801;41.924;25.562;2024-02-16T11:36:00;100083.00;;;26.79;21.68
54900;BME280;40801;41.924;25.562;2024-02-16T11:38:26;100085.41;;;26.38;22.53
54900;BME280;40801;41.924;25.562;2024-02-16T11:41:03;100091.16;;;25.00;22.79
54900;BME280;40801;41.924;25.562;2024-02-16T11:43:30;100085.97;;;24.40;23.87
54900;BME280;40801;41.924;25.562;2024-02-16T11:45:55;100096.16;;;23.65;24.65
54900;BME280;40801;41.924;25.562;2024-02-16T11:48:25;100084.91;;;23.77;24.49
54900;BME280;40801;41.924;25.562;2024-02-16T11:51:04;100084.88;;;24.55;23.93
54900;BME280;40801;41.924;25.562;2024-02-16T11:53:30;100081.91;;;23.93;24.70
54900;BME280;40801;41.924;25.562;2024-02-16T11:55:56;100077.78;;;24.54;24.55
54900;BME280;40801;41.924;25.562;2024-02-16T11:58:23;100079.44;;;24.22;25.01
54900;BME280;40801;41.924;25.562;2024-02-16T12:00:49;100082.06;;;24.96;23.81
54900;BME280;40801;41.924;25.562;2024-02-16T12:03:22;100075.94;;;23.84;24.31
54900;BME280;40801;41.924;25.562;2024-02-16T12:05:55;100074.22;;;23.12;25.21
54900;BME280;40801;41.924;25.562;2024-02-16T12:08:21;100084.25;;;21.68;26.75
54900;BME280;40801;41.924;25.562;2024-02-16T12:10:51;100083.44;;;20.93;27.52
54900;BME280;40801;41.924;25.562;2024-02-16T12:13:17;100085.81;;;20.16;28.68
54900;BME280;40801;41.924;25.562;2024-02-16T12:15:47;100080.78;;;20.18;28.90
54900;BME280;40801;41.924;25.562;2024-02-16T12:18:23;100078.84;;;19.35;30.60
54900;BME280;40801;41.924;25.562;2024-02-16T12:20:59;100088.91;;;19.18;30.54
54900;BME280;40801;41.924;25.562;2024-02-16T12:23:25;100083.47;;;18.94;30.43
54900;BME280;40801;41.924;25.562;2024-02-16T12:25:50;100075.75;;;18.72;30.76
54900;BME280;40801;41.924;25.562;2024-02-16T12:28:16;100075.53;;;18.65;30.91
54900;BME280;40801;41.924;25.562;2024-02-16T12:30:41;100083.09;;;18.35;31.29
54900;BME280;40801;41.924;25.562;2024-02-16T12:33:07;100075.78;;;18.14;31.91
54900;BME280;40801;41.924;25.562;2024-02-16T12:35:32;100076.22;;;18.04;32.34
54900;BME280;40801;41.924;25.562;2024-02-16T12:37:59;100078.16;;;18.16;32.78
54900;BME280;40801;41.924;25.562;2024-02-16T12:40:24;100072.81;;;18.19;32.64
54900;BME280;40801;41.924;25.562;2024-02-16T12:42:50;100079.22;;;17.90;33.05